Time;durP1;ratioP1;P1;durP2;ratioP2;P2;SDS_P1;SDS_P2;PMS_P1;PMS_P2;Temp;Humidity;BMP_temperature;BMP_pressure;BME280_temperature;BME280_humidity;BME280_pressure;Samples;Min_cycle;Max_cycle;Signal;HPM_P1;HPM_P2
2021/11/29 00:00:55;;;;;;;1.20;1.10;;;3.20;98.00;;;;;;5012775;28;20471;-62
2021/11/29 00:03:22;;;;;;;1.27;1.20;;;3.20;98.00;;;;;;5012710;28;20529;-62
2021/11/29 00:05:49;;;;;;;1.10;0.97;;;3.10;98.00;;;;;;5012766;28;20455;-64
2021/11/29 00:08:16;;;;;;;2.17;1.43;;;3.10;98.00;;;;;;5012705;28;20467;-64
2021/11/29 00:10:45;;;;;;;1.10;1.00;;;3.20;98.00;;;;;;5012619;28;20467;-64
2021/11/29 00:13:14;;;;;;;1.80;1.70;;;3.20;98.00;;;;;;4995379;28;20848;-64
2021/11/29 00:15:44;;;;;;;1.30;1.27;;;3.10;98.00;;;;;;5012764;28;20496;-65
2021/11/29 00:18:11;;;;;;;1.60;1.20;;;3.20;98.00;;;;;;5012685;28;20459;-64
2021/11/29 00:20:42;;;;;;;1.10;1.07;;;3.30;98.00;;;;;;5012166;28;20467;-64
2021/11/29 00:23:09;;;;;;;1.10;1.00;;;3.40;98.00;;;;;;5012676;28;20534;-65
2021/11/29 00:25:36;;;;;;;1.10;1.10;;;3.40;98.00;;;;;;5012502;28;20970;-64
2021/11/29 00:28:03;;;;;;;1.63;1.53;;;3.40;98.00;;;;;;5012484;28;20466;-64
2021/11/29 00:30:32;;;;;;;3.30;1.73;;;3.40;98.00;;;;;;5012455;28;20521;-64
2021/11/29 00:32:59;;;;;;;1.60;1.43;;;3.40;98.00;;;;;;5012495;28;20510;-65
2021/11/29 00:35:27;;;;;;;1.10;1.00;;;3.50;98.00;;;;;;5012051;28;20459;-64
2021/11/29 00:37:54;;;;;;;1.20;1.10;;;3.50;98.00;;;;;;5012486;28;20459;-64
2021/11/29 00:40:21;;;;;;;1.20;1.10;;;3.20;98.00;;;;;;5012417;28;20823;-64
2021/11/29 00:42:48;;;;;;;1.63;1.53;;;2.90;98.00;;;;;;5012381;28;20869;-64
2021/11/29 00:45:16;;;;;;;1.80;1.20;;;2.80;98.00;;;;;;5012352;28;20545;-64
2021/11/29 00:47:44;;;;;;;2.57;1.33;;;2.90;98.00;;;;;;5012390;28;20908;-65
2021/11/29 00:50:13;;;;;;;1.40;1.30;;;2.90;98.00;;;;;;5012133;28;21462;-64
2021/11/29 00:52:42;;;;;;;1.10;1.10;;;2.90;98.00;;;;;;5012037;28;20579;-64
2021/11/29 00:55:10;;;;;;;1.10;1.00;;;3.00;98.00;;;;;;5012447;28;21152;-65
2021/11/29 00:57:37;;;;;;;2.33;2.03;;;3.00;98.00;;;;;;5012125;28;20463;-64
2021/11/29 01:00:07;;;;;;;1.40;1.37;;;2.90;98.00;;;;;;5012250;28;20471;-64
2021/11/29 01:02:34;;;;;;;1.20;1.13;;;2.90;98.00;;;;;;5011895;28;20537;-65
2021/11/29 01:05:03;;;;;;;5.00;2.13;;;3.00;98.00;;;;;;5011868;28;20451;-62
2021/11/29 01:07:30;;;;;;;1.87;1.60;;;3.10;98.00;;;;;;5011984;28;20522;-62
2021/11/29 01:09:57;;;;;;;2.50;2.33;;;3.20;98.00;;;;;;5011929;28;20455;-62
2021/11/29 01:12:25;;;;;;;1.57;1.40;;;3.20;98.00;;;;;;5011626;28;20854;-62
2021/11/29 01:14:52;;;;;;;3.20;1.50;;;3.20;98.00;;;;;;5011858;28;20505;-62
2021/11/29 01:17:20;;;;;;;2.30;1.47;;;3.20;98.00;;;;;;5011799;28;20459;-62
2021/11/29 01:19:47;;;;;;;1.57;1.50;;;3.10;98.00;;;;;;5011778;28;20466;-64
2021/11/29 01:22:17;;;;;;;1.13;1.10;;;3.00;98.00;;;;;;5011607;28;20469;-64
2021/11/29 01:24:44;;;;;;;1.57;1.50;;;3.00;98.00;;;;;;5011713;28;20489;-62
2021/11/29 01:27:11;;;;;;;1.20;1.20;;;2.90;98.00;;;;;;5011675;28;20996;-62
2021/11/29 01:29:38;;;;;;;1.40;1.23;;;2.80;98.00;;;;;;5011189;28;20518;-62
2021/11/29 01:32:06;;;;;;;1.20;1.10;;;2.80;98.00;;;;;;5014086;28;20451;-62
2021/11/29 01:34:33;;;;;;;2.60;1.93;;;2.70;98.00;;;;;;5015616;28;21035;-62
2021/11/29 01:37:01;;;;;;;1.30;1.00;;;2.70;98.00;;;;;;5015472;28;20521;-62
2021/11/29 01:39:30;;;;;;;1.20;1.07;;;2.70;98.00;;;;;;5014221;28;20494;-61
2021/11/29 01:41:59;;;;;;;1.67;1.57;;;2.80;98.00;;;;;;5015492;28;20538;-62
2021/11/29 01:44:27;;;;;;;1.70;1.37;;;2.90;98.00;;;;;;5015237;28;20455;-64
2021/11/29 01:46:54;;;;;;;1.10;1.00;;;3.00;98.00;;;;;;5015359;28;20518;-64
2021/11/29 01:49:21;;;;;;;1.10;1.10;;;2.90;98.00;;;;;;5015234;28;20525;-64
2021/11/29 01:51:49;;;;;;;1.27;1.20;;;2.90;98.00;;;;;;5015447;28;20465;-64
2021/11/29 01:54:16;;;;;;;1.10;1.10;;;2.80;98.00;;;;;;5015337;28;20564;-64
2021/11/29 01:56:46;;;;;;;1.30;1.20;;;2.70;98.00;;;;;;5015245;28;20456;-63
2021/11/29 01:59:14;;;;;;;1.43;1.20;;;2.70;98.00;;;;;;5015360;28;20523;-64
2021/11/29 02:01:41;;;;;;;1.20;1.10;;;2.70;98.00;;;;;;5015242;28;20482;-64
2021/11/29 02:04:11;;;;;;;1.87;1.10;;;2.70;98.00;;;;;;5015121;28;20961;-64
2021/11/29 02:06:39;;;;;;;1.20;1.10;;;2.70;98.00;;;;;;5015088;28;20466;-64
2021/11/29 02:09:09;;;;;;;1.50;1.30;;;2.70;98.00;;;;;;5015291;28;20462;-64
2021/11/29 02:11:37;;;;;;;1.30;1.30;;;2.70;98.00;;;;;;5014984;28;20458;-63
2021/11/29 02:14:06;;;;;;;1.70;1.33;;;2.70;98.00;;;;;;5015082;28;20483;-64
2021/11/29 02:16:35;;;;;;;1.20;1.13;;;2.90;98.00;;;;;;5015274;28;20467;-64
2021/11/29 02:19:06;;;;;;;10.13;1.23;;;3.10;98.00;;;;;;5015249;28;20509;-64
2021/11/29 02:21:35;;;;;;;1.10;1.00;;;3.20;98.00;;;;;;5014891;28;20521;-64
2021/11/29 02:24:04;;;;;;;1.90;1.70;;;3.10;98.00;;;;;;5014787;28;20505;-63
2021/11/29 02:26:35;;;;;;;1.13;1.00;;;3.00;98.00;;;;;;5014529;28;20795;-63
2021/11/29 02:29:07;;;;;;;1.33;1.20;;;2.90;98.00;;;;;;5014698;28;20466;-63
2021/11/29 02:31:36;;;;;;;2.50;1.20;;;2.80;98.00;;;;;;5014761;28;20925;-64
2021/11/29 02:34:08;;;;;;;1.23;1.20;;;2.70;98.00;;;;;;5014410;28;20553;-64
2021/11/29 02:36:38;;;;;;;1.20;1.00;;;2.80;98.00;;;;;;5014444;28;20467;-63
2021/11/29 02:39:07;;;;;;;1.10;1.00;;;2.90;98.00;;;;;;5013308;28;20855;-64
2021/11/29 02:41:34;;;;;;;1.10;1.00;;;2.90;98.00;;;;;;5013889;28;20466;-64
2021/11/29 02:44:01;;;;;;;1.40;1.30;;;2.80;98.00;;;;;;5014393;28;20978;-64
2021/11/29 02:46:30;;;;;;;1.50;1.30;;;2.70;98.00;;;;;;5014353;28;20807;-64
2021/11/29 02:49:00;;;;;;;1.17;1.07;;;2.70;98.00;;;;;;5014321;28;20455;-64
2021/11/29 02:51:33;;;;;;;1.43;1.40;;;2.70;98.00;;;;;;5014140;28;20775;-63
2021/11/29 02:54:06;;;;;;;1.10;0.90;;;2.70;98.00;;;;;;5014193;28;20877;-64
2021/11/29 02:56:37;;;;;;;4.60;1.57;;;2.70;98.00;;;;;;5013916;28;20460;-64
2021/11/29 02:59:04;;;;;;;1.13;1.03;;;2.60;98.00;;;;;;5014008;28;20495;-63
2021/11/29 03:01:31;;;;;;;2.83;1.30;;;2.60;98.00;;;;;;5013515;28;20459;-64
2021/11/29 03:03:58;;;;;;;1.10;1.10;;;2.60;98.00;;;;;;5014126;28;20459;-64
2021/11/29 03:06:25;;;;;;;2.80;1.30;;;2.70;98.00;;;;;;5014020;28;20495;-64
2021/11/29 03:08:53;;;;;;;3.57;1.77;;;2.70;98.00;;;;;;5013954;28;20509;-64
2021/11/29 03:11:23;;;;;;;1.30;1.23;;;2.70;98.00;;;;;;5013770;28;20877;-63
2021/11/29 03:13:50;;;;;;;2.03;1.20;;;2.80;98.00;;;;;;5013822;28;20537;-64
2021/11/29 03:16:17;;;;;;;3.70;1.40;;;2.80;98.00;;;;;;5013510;28;20470;-64
2021/11/29 03:18:46;;;;;;;1.47;1.37;;;2.80;98.00;;;;;;5013820;28;20938;-64
2021/11/29 03:21:17;;;;;;;1.10;1.00;;;3.00;98.00;;;;;;5012830;28;20518;-63
2021/11/29 03:23:46;;;;;;;1.20;1.17;;;3.00;98.00;;;;;;5012922;28;20505;-64
2021/11/29 03:26:18;;;;;;;1.20;1.10;;;2.90;98.00;;;;;;5012835;28;20998;-64
2021/11/29 03:28:48;;;;;;;1.63;1.33;;;2.90;98.00;;;;;;5013711;28;20456;-64
2021/11/29 03:31:17;;;;;;;2.67;2.03;;;2.80;98.00;;;;;;5013532;28;20463;-64
2021/11/29 03:33:45;;;;;;;1.10;1.00;;;2.80;98.00;;;;;;5013548;28;20517;-64
2021/11/29 03:36:13;;;;;;;1.43;1.37;;;2.90;98.00;;;;;;5013552;28;20455;-63
2021/11/29 03:38:40;;;;;;;1.40;1.33;;;2.90;98.00;;;;;;5013707;28;20495;-64
2021/11/29 03:41:08;;;;;;;2.80;1.83;;;2.80;98.00;;;;;;5012557;28;20463;-63
2021/11/29 03:43:38;;;;;;;1.40;1.23;;;2.80;98.00;;;;;;5013584;28;20459;-64
2021/11/29 03:48:50;;;;;;;2.37;2.10;;;2.80;98.00;;;;;;5013673;28;20559;-64
2021/11/29 03:51:18;;;;;;;3.40;1.70;;;2.90;98.00;;;;;;5013152;28;20483;-64
2021/11/29 03:53:45;;;;;;;3.43;2.70;;;2.80;98.00;;;;;;5012202;28;20574;-64
2021/11/29 03:56:12;;;;;;;2.30;1.60;;;2.70;98.00;;;;;;5012367;28;20455;-64
2021/11/29 03:58:39;;;;;;;2.37;1.87;;;2.70;98.00;;;;;;5013116;28;20459;-64
2021/11/29 04:01:08;;;;;;;1.20;1.03;;;2.70;98.00;;;;;;5012882;28;20494;-63
2021/11/29 04:03:35;;;;;;;1.50;1.43;;;2.90;98.00;;;;;;5012785;28;20476;-64
2021/11/29 04:06:03;;;;;;;1.20;1.13;;;2.90;98.00;;;;;;5012762;28;20969;-64
2021/11/29 04:08:30;;;;;;;1.10;1.00;;;2.90;98.00;;;;;;5012707;28;20467;-64
2021/11/29 04:10:58;;;;;;;1.10;1.00;;;2.90;98.00;;;;;;5012832;28;20451;-64
2021/11/29 04:13:27;;;;;;;1.10;1.10;;;2.90;98.00;;;;;;5012753;28;20954;-64
2021/11/29 04:15:54;;;;;;;1.50;1.30;;;3.10;98.00;;;;;;5012665;28;20459;-64
2021/11/29 04:18:24;;;;;;;1.60;1.10;;;3.00;98.00;;;;;;5012536;28;20523;-63
2021/11/29 04:20:51;;;;;;;1.77;1.63;;;3.10;98.00;;;;;;5012527;28;20514;-64
2021/11/29 04:23:18;;;;;;;1.40;1.33;;;3.00;98.00;;;;;;5012341;28;20514;-64
2021/11/29 04:25:49;;;;;;;4.50;2.00;;;3.10;98.00;;;;;;5012548;28;20459;-64
2021/11/29 04:28:16;;;;;;;1.10;1.10;;;3.00;98.00;;;;;;5012702;28;20459;-63
2021/11/29 04:30:43;;;;;;;1.40;1.30;;;3.00;98.00;;;;;;5012462;28;21132;-64
2021/11/29 04:33:11;;;;;;;11.50;1.70;;;3.10;98.00;;;;;;5011215;28;20462;-63
2021/11/29 04:35:39;;;;;;;1.43;1.33;;;3.20;98.00;;;;;;5012539;28;20487;-64
2021/11/29 04:38:06;;;;;;;1.70;1.40;;;3.00;98.00;;;;;;5012180;28;20467;-64
2021/11/29 04:40:34;;;;;;;4.17;3.30;;;3.00;98.00;;;;;;5012369;28;20459;-64
2021/11/29 04:43:01;;;;;;;1.40;1.17;;;2.90;98.00;;;;;;5012358;28;20460;-64
2021/11/29 04:45:30;;;;;;;2.40;1.60;;;2.90;98.00;;;;;;5012458;28;20865;-64
2021/11/29 04:47:57;;;;;;;1.90;1.20;;;2.80;98.00;;;;;;5012345;28;20532;-64
2021/11/29 04:50:24;;;;;;;2.30;2.10;;;2.80;98.00;;;;;;5011243;28;20467;-63
2021/11/29 04:52:53;;;;;;;1.33;1.27;;;2.80;98.00;;;;;;5012004;28;20513;-64
2021/11/29 04:55:20;;;;;;;6.13;2.47;;;2.90;98.00;;;;;;5010902;28;20479;-64
2021/11/29 04:57:47;;;;;;;1.63;1.40;;;2.90;98.00;;;;;;5012305;28;20520;-64
2021/11/29 05:00:18;;;;;;;1.20;1.13;;;2.70;98.00;;;;;;5012284;28;20451;-64
2021/11/29 05:02:47;;;;;;;4.07;1.70;;;2.70;98.00;;;;;;5011905;28;20468;-64
2021/11/29 05:05:15;;;;;;;1.10;1.00;;;2.60;98.00;;;;;;5011005;28;20463;-63
2021/11/29 05:07:43;;;;;;;1.50;1.17;;;2.60;98.00;;;;;;5011848;28;20459;-64
2021/11/29 05:10:12;;;;;;;1.20;1.20;;;2.60;98.00;;;;;;5011821;28;21031;-64
2021/11/29 05:12:39;;;;;;;1.17;1.07;;;2.60;98.00;;;;;;5011920;28;20464;-64
2021/11/29 05:15:07;;;;;;;1.33;1.27;;;2.50;98.00;;;;;;5011759;28;20491;-64
2021/11/29 05:17:34;;;;;;;1.20;1.20;;;2.50;98.00;;;;;;5011695;28;20812;-64
2021/11/29 05:20:02;;;;;;;2.03;1.40;;;2.60;98.00;;;;;;5011758;28;20942;-64
2021/11/29 05:22:29;;;;;;;1.90;1.30;;;2.50;98.00;;;;;;5011735;28;20982;-64
2021/11/29 05:24:56;;;;;;;1.60;1.47;;;2.50;98.00;;;;;;5011587;28;20509;-64
2021/11/29 05:27:24;;;;;;;2.30;1.33;;;2.50;98.00;;;;;;5011736;28;21132;-64
2021/11/29 05:29:52;;;;;;;1.30;1.30;;;2.50;98.00;;;;;;5011682;28;20940;-64
2021/11/29 05:32:22;;;;;;;1.97;1.87;;;2.60;98.00;;;;;;5011640;28;20482;-64
2021/11/29 05:34:49;;;;;;;1.97;1.17;;;2.60;98.00;;;;;;5011612;28;20533;-64
2021/11/29 05:37:16;;;;;;;2.13;1.93;;;2.50;98.00;;;;;;5011843;28;20525;-63
2021/11/29 05:39:43;;;;;;;1.30;1.30;;;2.60;98.00;;;;;;5011865;28;20452;-64
2021/11/29 05:42:11;;;;;;;1.73;1.20;;;2.50;98.00;;;;;;5011643;28;20462;-64
2021/11/29 05:44:40;;;;;;;2.60;1.57;;;2.40;98.00;;;;;;5010312;28;20531;-64
2021/11/29 05:47:08;;;;;;;1.40;1.27;;;2.30;98.00;;;;;;5011657;28;20852;-64
2021/11/29 05:49:36;;;;;;;1.53;1.47;;;2.40;98.00;;;;;;5010564;28;20531;-64
2021/11/29 05:52:03;;;;;;;1.20;1.20;;;2.30;98.00;;;;;;5011547;28;21054;-64
2021/11/29 05:54:30;;;;;;;1.33;1.27;;;2.30;98.00;;;;;;5011677;28;20545;-63
2021/11/29 05:56:57;;;;;;;1.77;1.30;;;2.30;98.00;;;;;;5011636;28;20470;-64
2021/11/29 05:59:25;;;;;;;2.03;1.43;;;2.40;98.00;;;;;;5011734;28;20467;-64
2021/11/29 06:01:53;;;;;;;3.20;2.60;;;2.30;98.00;;;;;;5011269;28;20482;-64
2021/11/29 06:04:21;;;;;;;1.27;1.20;;;2.30;98.00;;;;;;5011655;28;20463;-64
2021/11/29 06:06:49;;;;;;;2.00;1.20;;;2.50;98.00;;;;;;5011477;28;20505;-63
2021/11/29 06:09:17;;;;;;;1.63;1.20;;;2.60;98.00;;;;;;5011520;28;20517;-64
2021/11/29 06:11:44;;;;;;;1.40;1.30;;;2.50;98.00;;;;;;5011468;28;20925;-64
2021/11/29 06:14:13;;;;;;;1.20;1.10;;;2.50;98.00;;;;;;5011461;28;20462;-64
2021/11/29 06:16:40;;;;;;;1.60;1.23;;;2.50;98.00;;;;;;5011534;28;20522;-64
2021/11/29 06:19:09;;;;;;;1.20;1.10;;;2.40;98.00;;;;;;5015210;28;20464;-64
2021/11/29 06:21:36;;;;;;;1.27;1.20;;;2.40;98.00;;;;;;5015331;28;20953;-64
2021/11/29 06:24:03;;;;;;;1.93;1.50;;;2.50;98.00;;;;;;5014965;28;20505;-64
2021/11/29 06:26:30;;;;;;;1.43;1.17;;;2.50;98.00;;;;;;5014969;28;20968;-64
2021/11/29 06:28:57;;;;;;;1.40;1.30;;;2.50;98.00;;;;;;5014835;28;20471;-64
2021/11/29 06:31:24;;;;;;;1.40;1.30;;;2.50;98.00;;;;;;5014341;28;20490;-64
2021/11/29 06:33:51;;;;;;;1.40;1.20;;;2.50;98.00;;;;;;5014466;28;20463;-64
2021/11/29 06:36:20;;;;;;;1.87;1.77;;;2.60;98.00;;;;;;5014316;28;20498;-64
2021/11/29 06:38:48;;;;;;;1.10;0.90;;;2.70;98.00;;;;;;5014508;28;20471;-63
2021/11/29 06:41:16;;;;;;;1.87;1.50;;;2.80;98.00;;;;;;5014274;28;20471;-63
2021/11/29 06:43:43;;;;;;;1.20;1.10;;;2.80;98.00;;;;;;5014499;28;20881;-64
2021/11/29 06:46:10;;;;;;;1.13;1.10;;;2.80;98.00;;;;;;5014324;28;20880;-64
2021/11/29 06:48:37;;;;;;;2.30;1.47;;;2.80;98.00;;;;;;5014330;28;20466;-63
2021/11/29 06:51:04;;;;;;;1.40;1.33;;;2.70;98.00;;;;;;5014312;28;20881;-64
2021/11/29 06:53:33;;;;;;;1.40;1.40;;;2.50;98.00;;;;;;5014689;28;20516;-64
2021/11/29 06:56:01;;;;;;;1.43;1.27;;;2.40;98.00;;;;;;5014019;28;20828;-63
2021/11/29 06:58:29;;;;;;;1.10;0.90;;;2.50;98.00;;;;;;5014215;28;20488;-63
2021/11/29 07:00:56;;;;;;;1.77;1.70;;;2.40;98.00;;;;;;5013939;28;20467;-63
2021/11/29 07:03:24;;;;;;;2.03;1.63;;;2.30;98.00;;;;;;5013850;28;20471;-64
2021/11/29 07:05:51;;;;;;;2.27;1.40;;;2.20;98.00;;;;;;5014143;28;20466;-64
2021/11/29 07:08:19;;;;;;;1.27;1.23;;;2.30;98.00;;;;;;5013818;28;20493;-64
2021/11/29 07:10:48;;;;;;;1.10;1.00;;;2.20;98.00;;;;;;5013917;28;20517;-63
2021/11/29 07:13:17;;;;;;;1.10;1.00;;;2.30;98.00;;;;;;5013718;28;20467;-63
2021/11/29 07:15:45;;;;;;;1.47;1.40;;;2.40;98.00;;;;;;5013554;28;20490;-63
2021/11/29 07:18:15;;;;;;;2.80;2.10;;;2.30;98.00;;;;;;5013717;28;20515;-64
2021/11/29 07:20:43;;;;;;;1.10;1.07;;;2.40;98.00;;;;;;5013866;28;20980;-64
2021/11/29 07:23:10;;;;;;;1.10;1.00;;;2.40;98.00;;;;;;5013773;28;20466;-64
2021/11/29 07:25:37;;;;;;;2.23;2.13;;;2.30;98.00;;;;;;5013946;28;20455;-64
2021/11/29 07:28:06;;;;;;;2.90;1.40;;;2.20;98.00;;;;;;5012671;28;20505;-64
2021/11/29 07:30:34;;;;;;;1.10;0.90;;;2.20;98.00;;;;;;5013303;28;20467;-63
2021/11/29 07:33:01;;;;;;;2.10;1.43;;;2.30;98.00;;;;;;5013718;28;20462;-64
2021/11/29 07:35:32;;;;;;;1.27;1.23;;;2.40;98.00;;;;;;5013676;28;20803;-64
2021/11/29 07:38:00;;;;;;;1.40;1.30;;;2.30;98.00;;;;;;5013626;28;20463;-64
2021/11/29 07:40:32;;;;;;;2.80;1.43;;;2.30;98.00;;;;;;5013676;28;20455;-64
2021/11/29 07:43:03;;;;;;;1.57;1.57;;;2.40;98.00;;;;;;5013235;28;20462;-63
2021/11/29 07:45:32;;;;;;;1.87;1.63;;;2.40;98.00;;;;;;5013250;28;20799;-64
2021/11/29 07:48:00;;;;;;;2.03;1.60;;;2.50;98.00;;;;;;5013155;28;20529;-64
2021/11/29 07:50:27;;;;;;;2.10;1.30;;;2.50;98.00;;;;;;5013534;28;20465;-63
2021/11/29 07:52:55;;;;;;;1.20;1.20;;;2.60;98.00;;;;;;5013017;28;20455;-64
2021/11/29 07:55:25;;;;;;;1.10;1.00;;;2.70;98.00;;;;;;5013151;28;20495;-63
2021/11/29 07:57:53;;;;;;;1.80;1.73;;;2.80;98.00;;;;;;5013062;28;20545;-64
2021/11/29 08:00:22;;;;;;;1.20;1.20;;;2.80;98.00;;;;;;5012593;28;20514;-63
2021/11/29 08:02:52;;;;;;;1.77;1.50;;;2.70;98.00;;;;;;5012633;28;20467;-64
2021/11/29 08:05:21;;;;;;;2.63;1.37;;;2.70;98.00;;;;;;5012967;28;20457;-63
2021/11/29 08:07:48;;;;;;;1.20;1.10;;;2.80;98.00;;;;;;5012888;28;20490;-64
2021/11/29 08:10:15;;;;;;;1.37;1.33;;;2.80;98.00;;;;;;5012556;28;20976;-64
2021/11/29 08:12:43;;;;;;;1.47;1.43;;;2.80;98.00;;;;;;5012941;28;20799;-64
2021/11/29 08:15:11;;;;;;;1.40;1.30;;;2.70;98.00;;;;;;5012540;28;20532;-64
2021/11/29 08:17:38;;;;;;;1.10;1.00;;;2.80;98.00;;;;;;5012562;28;21029;-64
2021/11/29 08:20:08;;;;;;;1.60;1.10;;;2.90;98.00;;;;;;5012389;28;20991;-64
2021/11/29 08:22:36;;;;;;;1.10;1.00;;;2.90;98.00;;;;;;5012593;28;20455;-64
2021/11/29 08:25:04;;;;;;;1.63;1.20;;;2.90;98.00;;;;;;5012546;28;20452;-64
2021/11/29 08:27:32;;;;;;;1.10;1.10;;;2.80;98.00;;;;;;5012431;28;20467;-64
2021/11/29 08:30:01;;;;;;;1.10;1.00;;;2.80;98.00;;;;;;5011641;28;20460;-63
2021/11/29 08:32:28;;;;;;;2.50;1.23;;;2.60;98.00;;;;;;5011689;28;20525;-63
2021/11/29 08:34:55;;;;;;;2.57;1.40;;;2.50;98.00;;;;;;5011704;28;20494;-64
2021/11/29 08:37:24;;;;;;;1.20;1.10;;;2.50;98.00;;;;;;5012462;28;21479;-63
2021/11/29 08:39:51;;;;;;;1.70;1.30;;;2.50;98.00;;;;;;5012245;28;20459;-63
2021/11/29 08:42:19;;;;;;;1.10;1.00;;;2.50;98.00;;;;;;5012391;28;20470;-63
2021/11/29 08:44:48;;;;;;;1.10;0.90;;;2.60;98.00;;;;;;5012104;28;20458;-64
2021/11/29 08:47:15;;;;;;;1.30;1.20;;;2.70;98.00;;;;;;5012366;28;20455;-62
2021/11/29 08:49:43;;;;;;;1.47;1.37;;;2.80;98.00;;;;;;5009357;28;20526;-62
2021/11/29 08:52:11;;;;;;;1.53;1.43;;;2.90;98.00;;;;;;5009108;28;20454;-61
2021/11/29 08:54:41;;;;;;;1.20;1.17;;;3.00;98.00;;;;;;5008926;28;20467;-62
2021/11/29 08:57:08;;;;;;;1.47;1.37;;;3.00;98.00;;;;;;5009778;28;20502;-61
2021/11/29 08:59:38;;;;;;;1.10;1.10;;;3.10;98.00;;;;;;5009638;28;20653;-61
2021/11/29 09:02:06;;;;;;;1.17;1.10;;;3.10;98.00;;;;;;5008056;28;20476;-61
2021/11/29 09:04:33;;;;;;;1.30;1.30;;;3.10;98.00;;;;;;5009529;28;20470;-61
2021/11/29 09:07:02;;;;;;;1.10;1.00;;;3.00;98.00;;;;;;5008229;28;20470;-61
2021/11/29 09:09:31;;;;;;;1.10;1.00;;;3.10;98.00;;;;;;5010053;28;20536;-61
2021/11/29 09:12:02;;;;;;;1.10;0.90;;;3.20;98.00;;;;;;5009421;28;20471;-61
2021/11/29 09:14:30;;;;;;;1.10;1.00;;;3.20;98.00;;;;;;5009170;28;21193;-61
2021/11/29 09:16:57;;;;;;;1.10;1.00;;;3.30;98.00;;;;;;5009255;28;20495;-61
2021/11/29 09:19:26;;;;;;;1.20;1.10;;;3.30;98.00;;;;;;5009368;28;20588;-61
2021/11/29 09:21:53;;;;;;;2.20;1.30;;;4.50;98.00;;;;;;5009029;28;20463;-61
2021/11/29 09:24:21;;;;;;;1.20;1.00;;;5.50;98.00;;;;;;5009308;28;21001;-61
2021/11/29 09:26:48;;;;;;;1.20;1.10;;;5.40;98.00;;;;;;5009115;28;20893;-60
2021/11/29 09:29:17;;;;;;;1.20;1.00;;;5.20;98.00;;;;;;5009123;28;20474;-61
2021/11/29 09:31:44;;;;;;;2.07;1.67;;;5.00;98.00;;;;;;5009234;28;20551;-62
2021/11/29 09:34:11;;;;;;;1.20;1.10;;;4.70;98.00;;;;;;5009254;28;20904;-62
2021/11/29 09:36:38;;;;;;;1.40;1.23;;;4.30;98.00;;;;;;5009061;28;20495;-62
2021/11/29 09:39:07;;;;;;;1.20;1.10;;;4.10;98.00;;;;;;5009096;28;20467;-62
2021/11/29 09:41:35;;;;;;;1.17;1.00;;;3.90;98.00;;;;;;5008568;28;20468;-62
2021/11/29 09:44:06;;;;;;;1.20;1.20;;;3.80;98.00;;;;;;5009242;28;20474;-62
2021/11/29 09:46:35;;;;;;;1.10;1.00;;;3.90;98.00;;;;;;5008862;28;20465;-62
2021/11/29 09:49:03;;;;;;;4.43;1.67;;;3.90;98.00;;;;;;5008843;28;20475;-62
2021/11/29 09:51:31;;;;;;;1.10;1.00;;;4.00;98.00;;;;;;5006852;28;20460;-62
2021/11/29 09:53:58;;;;;;;1.10;1.00;;;3.90;98.00;;;;;;5012811;28;20468;-63
2021/11/29 09:56:26;;;;;;;1.33;1.10;;;3.90;98.00;;;;;;5012662;28;20541;-62
2021/11/29 09:58:53;;;;;;;1.40;1.10;;;3.90;98.00;;;;;;5012537;28;21031;-63
2021/11/29 10:01:20;;;;;;;1.57;1.47;;;3.90;98.00;;;;;;5011331;28;20463;-62
2021/11/29 10:03:48;;;;;;;2.03;1.50;;;3.80;98.00;;;;;;5012456;28;21011;-62
2021/11/29 10:06:15;;;;;;;1.20;1.20;;;3.70;98.00;;;;;;5012610;28;20521;-61
2021/11/29 10:08:44;;;;;;;1.10;0.90;;;3.70;98.00;;;;;;5012819;28;20465;-63
2021/11/29 10:11:13;;;;;;;1.20;1.03;;;3.70;98.00;;;;;;5012221;28;20455;-62
2021/11/29 10:13:49;;;;;;;1.30;1.20;;;3.50;98.00;;;;;;5012268;28;20521;-61
2021/11/29 10:16:33;;;;;;;1.17;1.07;;;3.40;98.00;;;;;;5012285;28;20556;-62
2021/11/29 10:19:06;;;;;;;1.10;1.00;;;3.60;98.00;;;;;;5011879;28;20469;-61
2021/11/29 10:21:35;;;;;;;1.10;1.10;;;3.80;98.00;;;;;;5011994;28;20525;-63
2021/11/29 10:24:03;;;;;;;1.47;1.10;;;3.90;98.00;;;;;;5012465;28;20451;-63
2021/11/29 10:26:33;;;;;;;1.40;1.10;;;3.80;98.00;;;;;;5012101;28;20466;-63
2021/11/29 10:29:02;;;;;;;1.20;1.00;;;4.00;98.00;;;;;;5011916;28;20466;-63
2021/11/29 10:31:33;;;;;;;1.20;1.20;;;3.80;98.00;;;;;;5012011;28;20490;-63
2021/11/29 10:34:08;;;;;;;1.30;1.30;;;3.90;98.00;;;;;;5011545;28;20466;-63
2021/11/29 10:36:38;;;;;;;1.10;1.00;;;4.00;98.00;;;;;;5011735;28;20499;-63
2021/11/29 10:39:09;;;;;;;1.10;1.00;;;4.00;98.00;;;;;;5012213;28;20460;-62
2021/11/29 10:41:39;;;;;;;1.10;1.00;;;4.00;98.00;;;;;;5011789;28;20797;-63
2021/11/29 10:44:11;;;;;;;1.20;1.10;;;3.90;98.00;;;;;;5012135;28;20823;-63
2021/11/29 10:46:41;;;;;;;1.20;1.20;;;3.80;98.00;;;;;;5011752;28;20964;-63
2021/11/29 10:49:12;;;;;;;1.10;1.00;;;3.70;98.00;;;;;;5011139;28;20875;-64
2021/11/29 10:51:41;;;;;;;1.20;1.07;;;3.60;98.00;;;;;;5011312;28;21211;-63
2021/11/29 10:54:12;;;;;;;1.83;1.27;;;3.50;98.00;;;;;;5011567;28;20524;-63
2021/11/29 10:56:43;;;;;;;1.30;1.17;;;3.60;98.00;;;;;;5011168;28;21000;-63
2021/11/29 10:59:13;;;;;;;1.10;1.00;;;3.70;98.00;;;;;;5010491;28;20459;-63
2021/11/29 11:01:44;;;;;;;1.20;1.13;;;3.50;98.00;;;;;;5010735;28;20459;-63
2021/11/29 11:04:14;;;;;;;1.10;1.00;;;3.50;98.00;;;;;;5011558;28;20846;-63
2021/11/29 11:06:44;;;;;;;1.10;1.00;;;3.60;98.00;;;;;;5011517;28;20463;-63
2021/11/29 11:09:14;;;;;;;1.60;1.43;;;3.80;98.00;;;;;;5011532;28;20801;-64
2021/11/29 11:11:44;;;;;;;1.60;1.27;;;3.90;98.00;;;;;;5011601;28;20529;-61
2021/11/29 11:14:14;;;;;;;1.20;1.10;;;3.90;98.00;;;;;;5011492;28;20866;-62
2021/11/29 11:16:58;;;;;;;1.20;1.20;;;3.90;98.00;;;;;;5011720;28;21016;-64
2021/11/29 11:19:44;;;;;;;1.10;1.00;;;4.00;98.00;;;;;;5005063;28;20462;-63
2021/11/29 11:22:16;;;;;;;1.10;1.00;;;4.20;98.00;;;;;;5011048;28;20463;-62
2021/11/29 11:24:44;;;;;;;1.77;1.10;;;4.30;98.00;;;;;;5011142;28;20463;-62
2021/11/29 11:27:13;;;;;;;1.20;1.10;;;4.30;98.00;;;;;;5009643;28;20810;-62
2021/11/29 11:29:46;;;;;;;1.20;1.20;;;4.30;98.00;;;;;;5011183;28;20467;-63
2021/11/29 11:32:35;;;;;;;1.30;1.10;;;4.20;98.00;;;;;;5010754;28;20467;-64
2021/11/29 11:35:07;;;;;;;1.10;1.00;;;4.20;98.00;;;;;;5010991;28;20471;-63
2021/11/29 11:37:37;;;;;;;1.30;1.30;;;4.10;98.00;;;;;;5010834;28;20569;-63
2021/11/29 11:40:06;;;;;;;1.10;1.00;;;4.10;98.00;;;;;;5011319;28;20467;-64
2021/11/29 11:42:34;;;;;;;4.90;1.43;;;4.10;98.00;;;;;;5010776;28;20949;-64
2021/11/29 11:45:02;;;;;;;1.10;1.00;;;4.00;98.00;;;;;;5010894;28;20452;-64
2021/11/29 11:47:33;;;;;;;1.10;1.00;;;3.90;98.00;;;;;;5010681;28;20454;-64
2021/11/29 11:50:00;;;;;;;1.10;1.00;;;4.00;98.00;;;;;;5008527;28;21023;-64
2021/11/29 11:52:29;;;;;;;1.10;1.00;;;4.00;98.00;;;;;;5010505;28;20466;-63
2021/11/29 11:55:00;;;;;;;1.20;1.10;;;4.10;98.00;;;;;;5010421;28;20463;-64
2021/11/29 11:57:29;;;;;;;1.20;1.10;;;4.10;98.00;;;;;;5009431;28;20491;-64
2021/11/29 12:00:06;;;;;;;1.10;0.90;;;4.10;98.00;;;;;;5010624;28;20871;-64
2021/11/29 12:03:01;;;;;;;1.10;1.00;;;3.90;98.00;;;;;;5010381;28;20946;-63
2021/11/29 12:05:29;;;;;;;1.10;1.00;;;4.00;98.00;;;;;;5005404;28;20546;-64
2021/11/29 12:07:59;;;;;;;1.10;1.07;;;3.90;98.00;;;;;;5009951;28;20550;-64
2021/11/29 12:10:37;;;;;;;1.67;1.17;;;4.00;98.00;;;;;;5010018;28;20532;-64
2021/11/29 12:13:07;;;;;;;2.43;1.50;;;4.10;98.00;;;;;;5010085;28;20466;-64
2021/11/29 12:15:39;;;;;;;1.40;1.20;;;4.00;98.00;;;;;;5009751;28;20466;-64
2021/11/29 12:18:07;;;;;;;1.10;1.00;;;4.00;98.00;;;;;;5009923;28;20499;-63
2021/11/29 12:20:34;;;;;;;1.10;1.00;;;4.10;98.00;;;;;;5009870;28;20451;-62
2021/11/29 12:23:04;;;;;;;1.43;1.10;;;3.90;98.00;;;;;;5010271;28;20514;-63
2021/11/29 12:25:32;;;;;;;1.87;1.40;;;3.80;98.00;;;;;;5009903;28;20451;-62
2021/11/29 12:28:02;;;;;;;1.10;0.90;;;4.00;98.00;;;;;;5009673;28;20467;-63
2021/11/29 12:30:40;;;;;;;1.10;1.00;;;4.10;98.00;;;;;;5009978;28;20499;-62
2021/11/29 12:33:10;;;;;;;1.10;1.00;;;4.70;98.00;;;;;;5008531;28;20468;-63
2021/11/29 12:35:41;;;;;;;1.20;1.00;;;5.50;98.00;;;;;;5009917;28;20539;-63
2021/11/29 12:38:11;;;;;;;2.27;1.20;;;5.90;98.00;;;;;;5008435;28;20493;-64
2021/11/29 12:40:47;;;;;;;1.20;1.00;;;5.90;98.00;;;;;;5009899;28;20832;-64
2021/11/29 12:43:35;;;;;;;1.20;1.20;;;5.60;98.00;;;;;;5009770;28;20462;-64
2021/11/29 12:46:26;;;;;;;1.20;1.10;;;5.30;98.00;;;;;;5001708;28;20544;-64
2021/11/29 12:48:59;;;;;;;1.20;1.00;;;5.10;98.00;;;;;;5009415;28;20465;-64
2021/11/29 12:51:54;;;;;;;1.20;1.20;;;4.90;98.00;;;;;;5006006;28;20460;-64
2021/11/29 12:54:41;;;;;;;1.30;1.00;;;4.80;98.00;;;;;;5009767;28;20551;-63
2021/11/29 12:57:29;;;;;;;1.97;1.57;;;4.60;98.00;;;;;;5009512;28;20487;-64
2021/11/29 12:59:59;;;;;;;1.20;0.97;;;4.40;98.00;;;;;;5004680;28;20818;-64
2021/11/29 13:02:44;;;;;;;1.40;1.30;;;4.30;98.00;;;;;;5009485;28;20529;-64
2021/11/29 13:05:33;;;;;;;1.60;1.23;;;4.20;98.00;;;;;;5008645;28;20469;-64
2021/11/29 13:08:03;;;;;;;2.30;2.20;;;4.10;98.00;;;;;;5009474;28;20448;-64
2021/11/29 13:10:49;;;;;;;3.63;1.47;;;3.90;98.00;;;;;;5009802;28;20472;-64